sensor_id;sensor_type;location;lat;lon;timestamp;P1;durP1;ratioP1;P2;durP2;ratioP2
7338;SDS011;33747;49.524;8.390;2024-02-26T00:02:22;7.80;;;4.15;;
7338;SDS011;33747;49.524;8.390;2024-02-26T00:04:48;6.85;;;3.88;;
7338;SDS011;33747;49.524;8.390;2024-02-26T00:07:13;5.18;;;3.35;;
7338;SDS011;33747;49.524;8.390;2024-02-26T00:09:38;5.03;;;3.28;;
7338;SDS011;33747;49.524;8.390;2024-02-26T00:12:04;6.68;;;3.67;;
7338;SDS011;33747;49.524;8.390;2024-02-26T00:14:30;6.57;;;3.78;;
7338;SDS011;33747;49.524;8.390;2024-02-26T00:16:56;5.50;;;2.83;;
7338;SDS011;33747;49.524;8.390;2024-02-26T00:19:22;4.75;;;3.10;;
7338;SDS011;33747;49.524;8.390;2024-02-26T00:21:48;4.10;;;2.85;;
7338;SDS011;33747;49.524;8.390;2024-02-26T00:24:13;4.15;;;2.85;;
7338;SDS011;33747;49.524;8.390;2024-02-26T00:26:39;6.90;;;3.55;;
7338;SDS011;33747;49.524;8.390;2024-02-26T00:29:04;5.30;;;3.50;;
7338;SDS011;33747;49.524;8.390;2024-02-26T00:31:29;5.25;;;3.65;;
7338;SDS011;33747;49.524;8.390;2024-02-26T00:33:55;4.93;;;3.30;;
7338;SDS011;33747;49.524;8.390;2024-02-26T00:36:20;7.38;;;3.35;;
7338;SDS011;33747;49.524;8.390;2024-02-26T00:38:46;4.75;;;3.28;;
7338;SDS011;33747;49.524;8.390;2024-02-26T00:41:15;5.72;;;3.80;;
7338;SDS011;33747;49.524;8.390;2024-02-26T00:43:44;5.50;;;3.35;;
7338;SDS011;33747;49.524;8.390;2024-02-26T00:46:09;4.82;;;2.85;;
7338;SDS011;33747;49.524;8.390;2024-02-26T00:48:35;5.97;;;2.90;;
7338;SDS011;33747;49.524;8.390;2024-02-26T00:51:00;5.10;;;3.35;;
7338;SDS011;33747;49.524;8.390;2024-02-26T00:53:26;2.90;;;2.55;;
7338;SDS011;33747;49.524;8.390;2024-02-26T00:55:53;3.78;;;2.85;;
7338;SDS011;33747;49.524;8.390;2024-02-26T00:58:18;3.47;;;2.80;;
7338;SDS011;33747;49.524;8.390;2024-02-26T01:00:44;5.25;;;3.35;;
7338;SDS011;33747;49.524;8.390;2024-02-26T01:03:09;4.75;;;2.95;;
7338;SDS011;33747;49.524;8.390;2024-02-26T01:05:35;5.90;;;3.05;;
7338;SDS011;33747;49.524;8.390;2024-02-26T01:08:03;4.72;;;2.72;;
7338;SDS011;33747;49.524;8.390;2024-02-26T01:10:30;4.15;;;3.22;;
7338;SDS011;33747;49.524;8.390;2024-02-26T01:12:55;4.60;;;3.35;;
7338;SDS011;33747;49.524;8.390;2024-02-26T01:15:21;3.13;;;2.80;;
7338;SDS011;33747;49.524;8.390;2024-02-26T01:17:49;3.40;;;2.95;;
7338;SDS011;33747;49.524;8.390;2024-02-26T01:20:15;4.22;;;2.80;;
7338;SDS011;33747;49.524;8.390;2024-02-26T01:22:40;3.55;;;2.78;;
7338;SDS011;33747;49.524;8.390;2024-02-26T01:25:06;3.55;;;2.75;;
7338;SDS011;33747;49.524;8.390;2024-02-26T01:27:32;2.47;;;2.28;;
7338;SDS011;33747;49.524;8.390;2024-02-26T01:29:57;3.10;;;2.55;;
7338;SDS011;33747;49.524;8.390;2024-02-26T01:32:23;3.05;;;2.53;;
7338;SDS011;33747;49.524;8.390;2024-02-26T01:34:48;4.85;;;2.85;;
7338;SDS011;33747;49.524;8.390;2024-02-26T01:37:14;3.85;;;3.15;;
7338;SDS011;33747;49.524;8.390;2024-02-26T01:39:39;4.15;;;2.88;;
7338;SDS011;33747;49.524;8.390;2024-02-26T01:42:07;2.83;;;2.55;;
7338;SDS011;33747;49.524;8.390;2024-02-26T01:44:32;5.22;;;3.08;;
7338;SDS011;33747;49.524;8.390;2024-02-26T01:46:57;2.45;;;2.25;;
7338;SDS011;33747;49.524;8.390;2024-02-26T01:49:26;3.30;;;2.40;;
7338;SDS011;33747;49.524;8.390;2024-02-26T01:51:52;2.55;;;2.05;;
7338;SDS011;33747;49.524;8.390;2024-02-26T01:54:17;2.67;;;1.95;;
7338;SDS011;33747;49.524;8.390;2024-02-26T01:56:43;2.13;;;1.92;;
7338;SDS011;33747;49.524;8.390;2024-02-26T01:59:08;2.20;;;2.00;;
7338;SDS011;33747;49.524;8.390;2024-02-26T02:01:34;2.75;;;1.75;;
7338;SDS011;33747;49.524;8.390;2024-02-26T02:04:00;3.13;;;1.63;;
7338;SDS011;33747;49.524;8.390;2024-02-26T02:06:25;2.38;;;1.70;;
7338;SDS011;33747;49.524;8.390;2024-02-26T02:08:54;5.85;;;1.70;;
7338;SDS011;33747;49.524;8.390;2024-02-26T02:11:19;4.10;;;1.88;;
7338;SDS011;33747;49.524;8.390;2024-02-26T02:13:46;2.80;;;1.52;;
7338;SDS011;33747;49.524;8.390;2024-02-26T02:16:12;7.80;;;1.85;;
7338;SDS011;33747;49.524;8.390;2024-02-26T02:18:37;5.07;;;1.95;;
7338;SDS011;33747;49.524;8.390;2024-02-26T02:21:02;1.75;;;1.58;;
7338;SDS011;33747;49.524;8.390;2024-02-26T02:23:28;6.07;;;1.80;;
7338;SDS011;33747;49.524;8.390;2024-02-26T02:25:54;3.45;;;1.95;;
7338;SDS011;33747;49.524;8.390;2024-02-26T02:28:20;2.08;;;1.60;;
7338;SDS011;33747;49.524;8.390;2024-02-26T02:30:45;5.85;;;2.22;;
7338;SDS011;33747;49.524;8.390;2024-02-26T02:33:12;1.88;;;1.67;;
7338;SDS011;33747;49.524;8.390;2024-02-26T02:35:38;2.13;;;1.70;;
7338;SDS011;33747;49.524;8.390;2024-02-26T02:38:03;5.43;;;1.95;;
7338;SDS011;33747;49.524;8.390;2024-02-26T02:40:29;5.10;;;1.58;;
7338;SDS011;33747;49.524;8.390;2024-02-26T02:42:54;1.75;;;1.63;;
7338;SDS011;33747;49.524;8.390;2024-02-26T02:45:19;2.60;;;1.77;;
7338;SDS011;33747;49.524;8.390;2024-02-26T02:47:45;2.30;;;1.65;;
7338;SDS011;33747;49.524;8.390;2024-02-26T02:50:10;2.67;;;1.58;;
7338;SDS011;33747;49.524;8.390;2024-02-26T02:52:36;3.55;;;1.73;;
7338;SDS011;33747;49.524;8.390;2024-02-26T02:55:01;2.08;;;1.92;;
7338;SDS011;33747;49.524;8.390;2024-02-26T02:57:26;1.83;;;1.73;;
7338;SDS011;33747;49.524;8.390;2024-02-26T02:59:52;3.25;;;2.03;;
7338;SDS011;33747;49.524;8.390;2024-02-26T03:02:18;2.92;;;1.85;;
7338;SDS011;33747;49.524;8.390;2024-02-26T03:04:44;3.88;;;1.80;;
7338;SDS011;33747;49.524;8.390;2024-02-26T03:07:09;2.25;;;1.60;;
7338;SDS011;33747;49.524;8.390;2024-02-26T03:09:35;5.45;;;1.77;;
7338;SDS011;33747;49.524;8.390;2024-02-26T03:12:00;4.03;;;2.08;;
7338;SDS011;33747;49.524;8.390;2024-02-26T03:14:25;3.20;;;1.60;;
7338;SDS011;33747;49.524;8.390;2024-02-26T03:16:54;2.08;;;1.88;;
7338;SDS011;33747;49.524;8.390;2024-02-26T03:19:20;1.77;;;1.40;;
7338;SDS011;33747;49.524;8.390;2024-02-26T03:21:45;2.25;;;1.60;;
7338;SDS011;33747;49.524;8.390;2024-02-26T03:24:11;1.80;;;1.58;;
7338;SDS011;33747;49.524;8.390;2024-02-26T03:26:37;1.95;;;1.20;;
7338;SDS011;33747;49.524;8.390;2024-02-26T03:29:03;2.30;;;1.35;;
7338;SDS011;33747;49.524;8.390;2024-02-26T03:31:28;1.13;;;1.00;;
7338;SDS011;33747;49.524;8.390;2024-02-26T03:33:54;1.30;;;1.20;;
7338;SDS011;33747;49.524;8.390;2024-02-26T03:36:20;1.70;;;1.42;;
7338;SDS011;33747;49.524;8.390;2024-02-26T03:38:46;1.60;;;1.20;;
7338;SDS011;33747;49.524;8.390;2024-02-26T03:41:12;1.30;;;1.20;;
7338;SDS011;33747;49.524;8.390;2024-02-26T03:43:39;1.13;;;1.13;;
7338;SDS011;33747;49.524;8.390;2024-02-26T03:46:07;1.95;;;1.23;;
7338;SDS011;33747;49.524;8.390;2024-02-26T03:48:33;1.50;;;1.40;;
7338;SDS011;33747;49.524;8.390;2024-02-26T03:50:59;2.85;;;1.00;;
7338;SDS011;33747;49.524;8.390;2024-02-26T03:53:25;1.15;;;0.90;;
7338;SDS011;33747;49.524;8.390;2024-02-26T03:55:51;1.92;;;1.10;;
7338;SDS011;33747;49.524;8.390;2024-02-26T03:58:17;1.58;;;1.15;;
7338;SDS011;33747;49.524;8.390;2024-02-26T04:00:43;1.27;;;0.90;;
7338;SDS011;33747;49.524;8.390;2024-02-26T04:03:09;2.85;;;0.98;;
7338;SDS011;33747;49.524;8.390;2024-02-26T04:05:34;2.65;;;0.88;;
7338;SDS011;33747;49.524;8.390;2024-02-26T04:07:59;1.23;;;1.13;;
7338;SDS011;33747;49.524;8.390;2024-02-26T04:10:25;1.77;;;1.00;;
7338;SDS011;33747;49.524;8.390;2024-02-26T04:12:51;1.30;;;1.20;;
7338;SDS011;33747;49.524;8.390;2024-02-26T04:15:18;1.00;;;1.00;;
7338;SDS011;33747;49.524;8.390;2024-02-26T04:17:45;1.25;;;1.15;;
7338;SDS011;33747;49.524;8.390;2024-02-26T04:20:14;2.60;;;1.95;;
7338;SDS011;33747;49.524;8.390;2024-02-26T04:22:41;1.17;;;1.10;;
7338;SDS011;33747;49.524;8.390;2024-02-26T04:25:06;1.42;;;1.20;;
7338;SDS011;33747;49.524;8.390;2024-02-26T04:27:32;1.38;;;1.27;;
7338;SDS011;33747;49.524;8.390;2024-02-26T04:29:58;1.60;;;1.48;;
7338;SDS011;33747;49.524;8.390;2024-02-26T04:32:23;1.70;;;1.55;;
7338;SDS011;33747;49.524;8.390;2024-02-26T04:34:50;1.38;;;1.20;;
7338;SDS011;33747;49.524;8.390;2024-02-26T04:37:15;3.85;;;1.67;;
7338;SDS011;33747;49.524;8.390;2024-02-26T04:39:40;4.57;;;1.50;;
7338;SDS011;33747;49.524;8.390;2024-02-26T04:42:06;2.15;;;1.58;;
7338;SDS011;33747;49.524;8.390;2024-02-26T04:44:32;3.60;;;1.52;;
7338;SDS011;33747;49.524;8.390;2024-02-26T04:46:58;2.28;;;1.10;;
7338;SDS011;33747;49.524;8.390;2024-02-26T04:49:23;2.05;;;1.45;;
7338;SDS011;33747;49.524;8.390;2024-02-26T04:51:48;4.63;;;1.30;;
7338;SDS011;33747;49.524;8.390;2024-02-26T04:54:14;1.70;;;1.60;;
7338;SDS011;33747;49.524;8.390;2024-02-26T04:56:41;3.35;;;1.77;;
7338;SDS011;33747;49.524;8.390;2024-02-26T04:59:06;2.70;;;1.70;;
7338;SDS011;33747;49.524;8.390;2024-02-26T05:01:32;2.40;;;1.60;;
7338;SDS011;33747;49.524;8.390;2024-02-26T05:03:58;2.55;;;1.58;;
7338;SDS011;33747;49.524;8.390;2024-02-26T05:06:24;1.73;;;1.30;;
7338;SDS011;33747;49.524;8.390;2024-02-26T05:08:50;2.92;;;1.50;;
7338;SDS011;33747;49.524;8.390;2024-02-26T05:11:15;1.95;;;1.25;;
7338;SDS011;33747;49.524;8.390;2024-02-26T05:13:43;2.45;;;1.63;;
7338;SDS011;33747;49.524;8.390;2024-02-26T05:16:10;4.82;;;1.35;;
7338;SDS011;33747;49.524;8.390;2024-02-26T05:18:35;3.72;;;1.52;;
7338;SDS011;33747;49.524;8.390;2024-02-26T05:21:01;1.83;;;1.70;;
7338;SDS011;33747;49.524;8.390;2024-02-26T05:23:28;6.40;;;1.55;;
7338;SDS011;33747;49.524;8.390;2024-02-26T05:25:53;5.80;;;1.45;;
7338;SDS011;33747;49.524;8.390;2024-02-26T05:28:19;4.32;;;2.00;;
7338;SDS011;33747;49.524;8.390;2024-02-26T05:30:45;1.80;;;1.48;;
7338;SDS011;33747;49.524;8.390;2024-02-26T05:33:11;2.95;;;1.70;;
7338;SDS011;33747;49.524;8.390;2024-02-26T05:35:37;2.47;;;1.63;;
7338;SDS011;33747;49.524;8.390;2024-02-26T05:38:05;2.50;;;1.83;;
7338;SDS011;33747;49.524;8.390;2024-02-26T05:40:30;1.45;;;1.30;;
7338;SDS011;33747;49.524;8.390;2024-02-26T05:42:56;4.38;;;2.47;;
7338;SDS011;33747;49.524;8.390;2024-02-26T05:45:21;7.13;;;2.15;;
7338;SDS011;33747;49.524;8.390;2024-02-26T05:47:47;2.85;;;1.75;;
7338;SDS011;33747;49.524;8.390;2024-02-26T05:50:15;1.65;;;1.10;;
7338;SDS011;33747;49.524;8.390;2024-02-26T05:52:40;1.65;;;1.52;;
7338;SDS011;33747;49.524;8.390;2024-02-26T05:55:06;2.53;;;1.23;;
7338;SDS011;33747;49.524;8.390;2024-02-26T05:57:32;1.23;;;1.13;;
7338;SDS011;33747;49.524;8.390;2024-02-26T05:59:58;1.40;;;1.20;;
7338;SDS011;33747;49.524;8.390;2024-02-26T06:02:28;6.35;;;1.50;;
7338;SDS011;33747;49.524;8.390;2024-02-26T06:04:56;1.80;;;1.40;;
7338;SDS011;33747;49.524;8.390;2024-02-26T06:07:22;2.10;;;1.60;;
7338;SDS011;33747;49.524;8.390;2024-02-26T06:09:48;1.55;;;1.30;;
7338;SDS011;33747;49.524;8.390;2024-02-26T06:12:15;2.63;;;1.48;;
7338;SDS011;33747;49.524;8.390;2024-02-26T06:14:41;1.77;;;1.67;;
7338;SDS011;33747;49.524;8.390;2024-02-26T06:17:07;1.85;;;1.50;;
7338;SDS011;33747;49.524;8.390;2024-02-26T06:19:32;2.90;;;1.85;;
7338;SDS011;33747;49.524;8.390;2024-02-26T06:21:59;1.83;;;1.73;;
7338;SDS011;33747;49.524;8.390;2024-02-26T06:24:24;10.30;;;2.13;;
7338;SDS011;33747;49.524;8.390;2024-02-26T06:26:50;1.95;;;1.85;;
7338;SDS011;33747;49.524;8.390;2024-02-26T06:29:15;3.28;;;2.03;;
7338;SDS011;33747;49.524;8.390;2024-02-26T06:31:42;2.20;;;2.00;;
7338;SDS011;33747;49.524;8.390;2024-02-26T06:34:08;4.45;;;2.33;;
7338;SDS011;33747;49.524;8.390;2024-02-26T06:36:33;5.28;;;2.72;;
7338;SDS011;33747;49.524;8.390;2024-02-26T06:38:59;2.53;;;2.30;;
7338;SDS011;33747;49.524;8.390;2024-02-26T06:41:25;2.72;;;1.88;;
7338;SDS011;33747;49.524;8.390;2024-02-26T06:43:55;3.92;;;2.13;;
7338;SDS011;33747;49.524;8.390;2024-02-26T06:46:22;4.32;;;2.42;;
7338;SDS011;33747;49.524;8.390;2024-02-26T06:48:48;2.35;;;2.10;;
7338;SDS011;33747;49.524;8.390;2024-02-26T06:51:14;3.72;;;1.90;;
7338;SDS011;33747;49.524;8.390;2024-02-26T06:53:39;4.30;;;2.00;;
7338;SDS011;33747;49.524;8.390;2024-02-26T06:56:05;3.58;;;2.10;;
7338;SDS011;33747;49.524;8.390;2024-02-26T06:58:30;2.00;;;1.65;;
7338;SDS011;33747;49.524;8.390;2024-02-26T07:00:55;2.50;;;1.88;;
7338;SDS011;33747;49.524;8.390;2024-02-26T07:03:21;2.03;;;1.92;;
7338;SDS011;33747;49.524;8.390;2024-02-26T07:05:49;3.13;;;1.60;;
7338;SDS011;33747;49.524;8.390;2024-02-26T07:08:14;4.50;;;1.60;;
7338;SDS011;33747;49.524;8.390;2024-02-26T07:10:39;1.58;;;1.35;;
7338;SDS011;33747;49.524;8.390;2024-02-26T07:13:05;1.75;;;1.58;;
7338;SDS011;33747;49.524;8.390;2024-02-26T07:15:31;2.70;;;1.77;;
7338;SDS011;33747;49.524;8.390;2024-02-26T07:17:57;3.08;;;1.60;;
7338;SDS011;33747;49.524;8.390;2024-02-26T07:20:27;4.30;;;1.80;;
7338;SDS011;33747;49.524;8.390;2024-02-26T07:22:53;3.40;;;2.20;;
7338;SDS011;33747;49.524;8.390;2024-02-26T07:25:18;5.22;;;2.65;;
7338;SDS011;33747;49.524;8.390;2024-02-26T07:27:44;2.67;;;2.38;;
7338;SDS011;33747;49.524;8.390;2024-02-26T07:30:09;3.30;;;3.10;;
7338;SDS011;33747;49.524;8.390;2024-02-26T07:32:35;3.47;;;2.65;;
7338;SDS011;33747;49.524;8.390;2024-02-26T07:35:02;3.63;;;2.15;;
7338;SDS011;33747;49.524;8.390;2024-02-26T07:37:28;2.55;;;2.22;;
7338;SDS011;33747;49.524;8.390;2024-02-26T07:39:53;6.47;;;2.00;;
7338;SDS011;33747;49.524;8.390;2024-02-26T07:42:20;2.10;;;1.50;;
7338;SDS011;33747;49.524;8.390;2024-02-26T07:44:48;3.13;;;1.77;;
7338;SDS011;33747;49.524;8.390;2024-02-26T07:47:14;2.45;;;1.42;;
7338;SDS011;33747;49.524;8.390;2024-02-26T07:49:41;2.05;;;1.50;;
7338;SDS011;33747;49.524;8.390;2024-02-26T07:52:07;5.28;;;1.63;;
7338;SDS011;33747;49.524;8.390;2024-02-26T07:54:34;2.35;;;1.20;;
7338;SDS011;33747;49.524;8.390;2024-02-26T07:57:01;1.25;;;1.20;;
7338;SDS011;33747;49.524;8.390;2024-02-26T07:59:30;2.45;;;1.23;;
7338;SDS011;33747;49.524;8.390;2024-02-26T08:01:55;2.55;;;1.30;;
7338;SDS011;33747;49.524;8.390;2024-02-26T08:04:22;1.40;;;1.30;;
7338;SDS011;33747;49.524;8.390;2024-02-26T08:06:49;2.67;;;1.73;;
7338;SDS011;33747;49.524;8.390;2024-02-26T08:09:14;1.42;;;1.30;;
7338;SDS011;33747;49.524;8.390;2024-02-26T08:11:41;1.60;;;1.50;;
7338;SDS011;33747;49.524;8.390;2024-02-26T08:14:06;2.25;;;1.30;;
7338;SDS011;33747;49.524;8.390;2024-02-26T08:16:31;2.58;;;1.40;;
7338;SDS011;33747;49.524;8.390;2024-02-26T08:18:57;1.25;;;1.25;;
7338;SDS011;33747;49.524;8.390;2024-02-26T08:21:23;2.65;;;1.92;;
7338;SDS011;33747;49.524;8.390;2024-02-26T08:23:51;4.30;;;1.50;;
7338;SDS011;33747;49.524;8.390;2024-02-26T08:26:17;2.75;;;1.65;;
7338;SDS011;33747;49.524;8.390;2024-02-26T08:28:42;2.08;;;1.70;;
7338;SDS011;33747;49.524;8.390;2024-02-26T08:31:07;1.50;;;1.40;;
7338;SDS011;33747;49.524;8.390;2024-02-26T08:33:33;2.83;;;1.65;;
7338;SDS011;33747;49.524;8.390;2024-02-26T08:36:03;3.65;;;2.17;;
7338;SDS011;33747;49.524;8.390;2024-02-26T08:38:31;5.65;;;2.30;;
7338;SDS011;33747;49.524;8.390;2024-02-26T08:40:59;2.33;;;2.00;;
7338;SDS011;33747;49.524;8.390;2024-02-26T08:43:25;3.05;;;2.17;;
7338;SDS011;33747;49.524;8.390;2024-02-26T08:45:50;5.65;;;3.05;;
7338;SDS011;33747;49.524;8.390;2024-02-26T08:48:15;5.10;;;2.47;;
7338;SDS011;33747;49.524;8.390;2024-02-26T08:50:41;6.53;;;2.35;;
7338;SDS011;33747;49.524;8.390;2024-02-26T08:53:06;1.98;;;1.85;;
7338;SDS011;33747;49.524;8.390;2024-02-26T08:55:32;3.47;;;1.70;;
7338;SDS011;33747;49.524;8.390;2024-02-26T08:58:00;1.42;;;1.33;;
7338;SDS011;33747;49.524;8.390;2024-02-26T09:00:27;2.17;;;1.60;;
7338;SDS011;33747;49.524;8.390;2024-02-26T09:02:52;2.88;;;2.20;;
7338;SDS011;33747;49.524;8.390;2024-02-26T09:05:19;4.75;;;2.55;;
7338;SDS011;33747;49.524;8.390;2024-02-26T09:07:44;4.28;;;2.20;;
7338;SDS011;33747;49.524;8.390;2024-02-26T09:10:10;2.28;;;2.08;;
7338;SDS011;33747;49.524;8.390;2024-02-26T09:12:37;3.03;;;2.05;;
7338;SDS011;33747;49.524;8.390;2024-02-26T09:15:04;4.10;;;2.17;;
7338;SDS011;33747;49.524;8.390;2024-02-26T09:17:30;3.55;;;1.70;;
7338;SDS011;33747;49.524;8.390;2024-02-26T09:19:56;2.53;;;1.88;;
7338;SDS011;33747;49.524;8.390;2024-02-26T09:22:21;1.33;;;1.23;;
7338;SDS011;33747;49.524;8.390;2024-02-26T09:24:48;1.73;;;1.45;;
7338;SDS011;33747;49.524;8.390;2024-02-26T09:27:17;1.67;;;1.58;;
7338;SDS011;33747;49.524;8.390;2024-02-26T09:29:43;3.25;;;1.65;;
7338;SDS011;33747;49.524;8.390;2024-02-26T09:32:20;1.90;;;1.42;;
7338;SDS011;33747;49.524;8.390;2024-02-26T09:34:45;3.00;;;1.73;;
7338;SDS011;33747;49.524;8.390;2024-02-26T09:37:11;1.67;;;1.50;;
7338;SDS011;33747;49.524;8.390;2024-02-26T09:39:38;2.08;;;1.40;;
7338;SDS011;33747;49.524;8.390;2024-02-26T09:42:04;2.47;;;1.95;;
7338;SDS011;33747;49.524;8.390;2024-02-26T09:44:31;2.30;;;1.30;;
7338;SDS011;33747;49.524;8.390;2024-02-26T09:47:00;2.08;;;1.77;;
7338;SDS011;33747;49.524;8.390;2024-02-26T09:49:26;1.98;;;1.55;;
7338;SDS011;33747;49.524;8.390;2024-02-26T09:51:52;4.07;;;1.77;;
7338;SDS011;33747;49.524;8.390;2024-02-26T09:54:19;7.00;;;2.55;;
7338;SDS011;33747;49.524;8.390;2024-02-26T09:56:44;4.18;;;2.40;;
7338;SDS011;33747;49.524;8.390;2024-02-26T09:59:14;3.85;;;3.00;;
7338;SDS011;33747;49.524;8.390;2024-02-26T10:01:42;4.90;;;2.20;;
7338;SDS011;33747;49.524;8.390;2024-02-26T10:04:08;3.05;;;1.98;;
7338;SDS011;33747;49.524;8.390;2024-02-26T10:06:34;5.30;;;3.58;;
7338;SDS011;33747;49.524;8.390;2024-02-26T10:09:01;7.38;;;4.30;;
7338;SDS011;33747;49.524;8.390;2024-02-26T10:11:30;5.85;;;4.25;;
7338;SDS011;33747;49.524;8.390;2024-02-26T10:13:55;5.47;;;3.95;;
7338;SDS011;33747;49.524;8.390;2024-02-26T10:16:21;3.42;;;2.10;;
7338;SDS011;33747;49.524;8.390;2024-02-26T10:18:52;2.97;;;1.90;;
7338;SDS011;33747;49.524;8.390;2024-02-26T10:21:22;5.07;;;1.80;;
7338;SDS011;33747;49.524;8.390;2024-02-26T10:23:48;1.50;;;1.38;;
7338;SDS011;33747;49.524;8.390;2024-02-26T10:26:14;2.17;;;1.27;;
7338;SDS011;33747;49.524;8.390;2024-02-26T10:28:41;3.30;;;2.17;;
7338;SDS011;33747;49.524;8.390;2024-02-26T10:31:08;4.38;;;2.42;;
7338;SDS011;33747;49.524;8.390;2024-02-26T10:33:34;5.10;;;2.70;;
7338;SDS011;33747;49.524;8.390;2024-02-26T10:36:04;5.68;;;3.42;;
7338;SDS011;33747;49.524;8.390;2024-02-26T10:38:31;5.57;;;3.25;;
7338;SDS011;33747;49.524;8.390;2024-02-26T10:40:57;3.67;;;2.60;;
7338;SDS011;33747;49.524;8.390;2024-02-26T10:43:25;9.40;;;2.75;;
7338;SDS011;33747;49.524;8.390;2024-02-26T10:45:54;4.45;;;2.33;;
7338;SDS011;33747;49.524;8.390;2024-02-26T10:48:20;5.72;;;2.50;;
7338;SDS011;33747;49.524;8.390;2024-02-26T10:50:45;3.10;;;2.60;;
7338;SDS011;33747;49.524;8.390;2024-02-26T10:53:21;3.15;;;2.80;;
7338;SDS011;33747;49.524;8.390;2024-02-26T10:55:48;5.22;;;2.45;;
7338;SDS011;33747;49.524;8.390;2024-02-26T10:58:35;3.40;;;2.90;;
7338;SDS011;33747;49.524;8.390;2024-02-26T11:01:01;5.03;;;2.20;;
7338;SDS011;33747;49.524;8.390;2024-02-26T11:03:26;4.38;;;2.78;;
7338;SDS011;33747;49.524;8.390;2024-02-26T11:05:53;6.72;;;2.40;;
7338;SDS011;33747;49.524;8.390;2024-02-26T11:08:19;6.00;;;2.13;;
7338;SDS011;33747;49.524;8.390;2024-02-26T11:10:50;4.45;;;2.50;;
7338;SDS011;33747;49.524;8.390;2024-02-26T11:13:18;3.20;;;2.28;;
7338;SDS011;33747;49.524;8.390;2024-02-26T11:15:46;2.33;;;2.13;;
7338;SDS011;33747;49.524;8.390;2024-02-26T11:18:13;2.30;;;1.88;;
7338;SDS011;33747;49.524;8.390;2024-02-26T11:20:40;5.45;;;2.30;;
7338;SDS011;33747;49.524;8.390;2024-02-26T11:23:06;2.67;;;2.47;;
7338;SDS011;33747;49.524;8.390;2024-02-26T11:25:34;3.22;;;2.08;;
7338;SDS011;33747;49.524;8.390;2024-02-26T11:28:02;5.75;;;2.50;;
7338;SDS011;33747;49.524;8.390;2024-02-26T11:30:31;3.63;;;2.13;;
7338;SDS011;33747;49.524;8.390;2024-02-26T11:32:58;2.40;;;2.20;;
7338;SDS011;33747;49.524;8.390;2024-02-26T11:35:23;4.35;;;2.58;;
7338;SDS011;33747;49.524;8.390;2024-02-26T11:37:57;3.25;;;1.95;;
7338;SDS011;33747;49.524;8.390;2024-02-26T11:40:26;2.63;;;1.92;;
7338;SDS011;33747;49.524;8.390;2024-02-26T11:42:52;3.97;;;2.10;;
7338;SDS011;33747;49.524;8.390;2024-02-26T11:46:00;3.70;;;2.78;;
7338;SDS011;33747;49.524;8.390;2024-02-26T11:48:23;2.15;;;1.95;;
7338;SDS011;33747;49.524;8.390;2024-02-26T11:50:52;2.67;;;1.92;;
7338;SDS011;33747;49.524;8.390;2024-02-26T11:53:28;3.13;;;2.20;;
7338;SDS011;33747;49.524;8.390;2024-02-26T11:58:59;4.95;;;2.33;;
7338;SDS011;33747;49.524;8.390;2024-02-26T12:01:41;1.80;;;1.70;;
7338;SDS011;33747;49.524;8.390;2024-02-26T12:09:40;8.43;;;2.40;;
7338;SDS011;33747;49.524;8.390;2024-02-26T12:12:07;1.95;;;1.77;;
7338;SDS011;33747;49.524;8.390;2024-02-26T12:14:34;5.93;;;2.50;;
7338;SDS011;33747;49.524;8.390;2024-02-26T12:17:04;4.70;;;2.60;;
7338;SDS011;33747;49.524;8.390;2024-02-26T12:19:33;6.70;;;2.35;;
7338;SDS011;33747;49.524;8.390;2024-02-26T12:22:02;4.10;;;2.58;;
7338;SDS011;33747;49.524;8.390;2024-02-26T12:24:27;3.80;;;1.95;;
7338;SDS011;33747;49.524;8.390;2024-02-26T12:26:53;2.90;;;2.30;;
7338;SDS011;33747;49.524;8.390;2024-02-26T12:29:18;3.00;;;2.30;;
7338;SDS011;33747;49.524;8.390;2024-02-26T12:31:45;3.45;;;2.53;;
7338;SDS011;33747;49.524;8.390;2024-02-26T12:34:10;5.53;;;2.17;;
7338;SDS011;33747;49.524;8.390;2024-02-26T12:36:37;5.85;;;2.50;;
7338;SDS011;33747;49.524;8.390;2024-02-26T12:39:03;3.38;;;2.80;;
7338;SDS011;33747;49.524;8.390;2024-02-26T12:41:31;2.47;;;2.28;;
7338;SDS011;33747;49.524;8.390;2024-02-26T12:43:57;5.82;;;2.70;;
7338;SDS011;33747;49.524;8.390;2024-02-26T12:46:23;3.58;;;2.63;;
7338;SDS011;33747;49.524;8.390;2024-02-26T12:48:48;6.78;;;2.05;;
7338;SDS011;33747;49.524;8.390;2024-02-26T12:51:16;2.63;;;2.42;;
7338;SDS011;33747;49.524;8.390;2024-02-26T12:53:43;2.67;;;2.22;;
7338;SDS011;33747;49.524;8.390;2024-02-26T12:56:10;3.92;;;2.40;;
7338;SDS011;33747;49.524;8.390;2024-02-26T12:58:37;7.80;;;2.55;;
7338;SDS011;33747;49.524;8.390;2024-02-26T13:01:04;4.60;;;2.30;;
7338;SDS011;33747;49.524;8.390;2024-02-26T13:03:30;3.58;;;1.88;;
7338;SDS011;33747;49.524;8.390;2024-02-26T13:05:56;3.35;;;2.00;;
7338;SDS011;33747;49.524;8.390;2024-02-26T13:08:23;2.80;;;2.20;;
7338;SDS011;33747;49.524;8.390;2024-02-26T13:10:49;6.57;;;1.90;;
7338;SDS011;33747;49.524;8.390;2024-02-26T13:13:16;2.03;;;1.92;;
7338;SDS011;33747;49.524;8.390;2024-02-26T13:15:42;3.33;;;2.30;;
7338;SDS011;33747;49.524;8.390;2024-02-26T13:18:12;4.35;;;2.38;;
7338;SDS011;33747;49.524;8.390;2024-02-26T13:20:39;2.20;;;1.83;;
7338;SDS011;33747;49.524;8.390;2024-02-26T13:23:10;2.50;;;2.30;;
7338;SDS011;33747;49.524;8.390;2024-02-26T13:25:36;2.60;;;2.40;;
7338;SDS011;33747;49.524;8.390;2024-02-26T13:28:14;2.20;;;2.00;;
7338;SDS011;33747;49.524;8.390;2024-02-26T13:30:53;3.00;;;1.88;;
7338;SDS011;33747;49.524;8.390;2024-02-26T13:33:23;1.85;;;1.67;;
7338;SDS011;33747;49.524;8.390;2024-02-26T13:35:49;2.50;;;2.13;;
7338;SDS011;33747;49.524;8.390;2024-02-26T13:38:16;5.15;;;2.05;;
7338;SDS011;33747;49.524;8.390;2024-02-26T13:40:43;2.15;;;1.83;;
7338;SDS011;33747;49.524;8.390;2024-02-26T13:43:10;4.07;;;2.25;;
7338;SDS011;33747;49.524;8.390;2024-02-26T13:45:36;3.60;;;1.35;;
7338;SDS011;33747;49.524;8.390;2024-02-26T13:48:05;2.35;;;1.88;;
7338;SDS011;33747;49.524;8.390;2024-02-26T13:50:31;3.05;;;1.80;;
7338;SDS011;33747;49.524;8.390;2024-02-26T13:52:58;7.47;;;2.10;;
7338;SDS011;33747;49.524;8.390;2024-02-26T13:55:28;4.50;;;2.30;;
7338;SDS011;33747;49.524;8.390;2024-02-26T13:57:58;2.17;;;1.98;;
7338;SDS011;33747;49.524;8.390;2024-02-26T14:00:26;3.10;;;2.42;;
7338;SDS011;33747;49.524;8.390;2024-02-26T14:02:52;2.75;;;1.90;;
7338;SDS011;33747;49.524;8.390;2024-02-26T14:05:17;2.13;;;1.60;;
7338;SDS011;33747;49.524;8.390;2024-02-26T14:07:44;2.00;;;1.50;;
7338;SDS011;33747;49.524;8.390;2024-02-26T14:10:14;1.75;;;1.60;;
7338;SDS011;33747;49.524;8.390;2024-02-26T14:12:41;6.82;;;1.92;;
7338;SDS011;33747;49.524;8.390;2024-02-26T14:15:06;2.38;;;1.85;;
7338;SDS011;33747;49.524;8.390;2024-02-26T14:17:33;7.30;;;1.95;;
7338;SDS011;33747;49.524;8.390;2024-02-26T14:19:59;2.53;;;2.33;;
7338;SDS011;33747;49.524;8.390;2024-02-26T14:22:24;2.28;;;1.95;;
7338;SDS011;33747;49.524;8.390;2024-02-26T14:24:51;3.45;;;2.42;;
7338;SDS011;33747;49.524;8.390;2024-02-26T14:27:17;5.95;;;2.17;;
7338;SDS011;33747;49.524;8.390;2024-02-26T14:29:46;6.13;;;3.17;;
7338;SDS011;33747;49.524;8.390;2024-02-26T14:32:11;5.05;;;2.80;;
7338;SDS011;33747;49.524;8.390;2024-02-26T14:34:37;4.15;;;2.67;;
7338;SDS011;33747;49.524;8.390;2024-02-26T14:37:03;9.57;;;3.80;;
7338;SDS011;33747;49.524;8.390;2024-02-26T14:39:29;5.88;;;2.70;;
7338;SDS011;33747;49.524;8.390;2024-02-26T14:41:56;4.80;;;2.42;;
7338;SDS011;33747;49.524;8.390;2024-02-26T14:44:23;8.27;;;2.15;;
7338;SDS011;33747;49.524;8.390;2024-02-26T14:46:49;5.45;;;2.35;;
7338;SDS011;33747;49.524;8.390;2024-02-26T14:49:14;2.47;;;1.75;;
7338;SDS011;33747;49.524;8.390;2024-02-26T14:51:40;2.58;;;1.80;;
7338;SDS011;33747;49.524;8.390;2024-02-26T14:54:05;2.88;;;1.95;;
7338;SDS011;33747;49.524;8.390;2024-02-26T14:56:31;2.53;;;1.92;;
7338;SDS011;33747;49.524;8.390;2024-02-26T14:58:56;4.25;;;2.60;;
7338;SDS011;33747;49.524;8.390;2024-02-26T15:01:24;3.90;;;2.25;;
7338;SDS011;33747;49.524;8.390;2024-02-26T15:03:50;7.50;;;2.85;;
7338;SDS011;33747;49.524;8.390;2024-02-26T15:06:17;6.97;;;3.33;;